Time;durP1;ratioP1;P1;durP2;ratioP2;P2;SDS_P1;SDS_P2;PMS_P1;PMS_P2;Temp;Humidity;BMP_temperature;BMP_pressure;BME280_temperature;BME280_humidity;BME280_pressure;Samples;Min_cycle;Max_cycle;Signal;HPM_P1;HPM_P2
2022/04/27 00:02:14;;;;;;;11.20;5.03;;;8.30;99.90;;;;;;5040164;28;20049;-52
2022/04/27 00:04:40;;;;;;;11.85;4.72;;;8.30;99.90;;;;;;5039055;28;20041;-52
2022/04/27 00:07:07;;;;;;;7.97;4.32;;;8.40;99.90;;;;;;5039452;28;20040;-52
2022/04/27 00:09:33;;;;;;;10.25;4.57;;;8.40;99.90;;;;;;5021376;28;20088;-53
2022/04/27 00:12:01;;;;;;;10.13;4.32;;;8.30;99.90;;;;;;5038849;28;20691;-53
2022/04/27 00:14:28;;;;;;;8.73;4.18;;;8.30;99.90;;;;;;5039877;28;20045;-54
2022/04/27 00:16:54;;;;;;;7.80;3.65;;;8.50;99.90;;;;;;5038732;28;20387;-50
2022/04/27 00:19:20;;;;;;;11.05;4.03;;;8.50;99.90;;;;;;5039920;28;20037;-53
2022/04/27 00:21:46;;;;;;;9.40;3.80;;;8.60;99.90;;;;;;5038791;28;20045;-53
2022/04/27 00:24:11;;;;;;;8.88;3.42;;;8.60;99.90;;;;;;5024337;28;20049;-56
2022/04/27 00:26:37;;;;;;;10.25;3.67;;;8.60;99.90;;;;;;5025033;28;20038;-56
2022/04/27 00:29:03;;;;;;;8.88;3.08;;;8.60;99.90;;;;;;5024860;28;20131;-54
2022/04/27 00:31:31;;;;;;;10.52;3.53;;;8.60;99.90;;;;;;5043728;28;20041;-53
2022/04/27 00:33:59;;;;;;;9.35;3.65;;;8.70;99.90;;;;;;5042319;28;20049;-54
2022/04/27 00:36:24;;;;;;;9.82;3.20;;;8.70;99.90;;;;;;5043814;28;20044;-59
2022/04/27 00:38:50;;;;;;;6.90;2.80;;;8.80;99.90;;;;;;5042259;28;20104;-55
2022/04/27 00:41:16;;;;;;;11.20;3.20;;;8.80;99.90;;;;;;5043283;28;20096;-54
2022/04/27 00:43:42;;;;;;;11.75;3.97;;;8.80;99.90;;;;;;5042511;28;20041;-54
2022/04/27 00:46:11;;;;;;;11.25;3.03;;;8.80;99.90;;;;;;5042359;28;20095;-53
2022/04/27 00:48:41;;;;;;;7.82;2.80;;;8.90;99.90;;;;;;5043131;28;20080;-52
2022/04/27 00:51:11;;;;;;;7.28;2.83;;;8.80;99.90;;;;;;5041708;28;20497;-51
2022/04/27 00:53:37;;;;;;;9.57;2.95;;;8.70;99.90;;;;;;5042914;28;20088;-55
2022/04/27 00:56:03;;;;;;;10.50;3.10;;;8.70;99.90;;;;;;5042154;28;20046;-55
2022/04/27 00:58:29;;;;;;;6.75;3.13;;;8.70;99.90;;;;;;5042456;28;20049;-54
2022/04/27 01:00:55;;;;;;;9.07;3.00;;;8.70;99.90;;;;;;5042433;28;20041;-54
2022/04/27 01:03:22;;;;;;;8.93;3.60;;;8.70;99.90;;;;;;5042179;28;20045;-52
2022/04/27 01:05:49;;;;;;;11.95;3.75;;;8.70;99.90;;;;;;5042908;28;20053;-52
2022/04/27 01:08:21;;;;;;;6.97;3.33;;;8.60;99.90;;;;;;5041500;28;20049;-53
2022/04/27 01:10:48;;;;;;;9.40;3.28;;;8.60;99.90;;;;;;5043124;28;20410;-54
2022/04/27 01:13:15;;;;;;;6.75;2.80;;;8.70;99.90;;;;;;5041971;28;20041;-53
2022/04/27 01:15:41;;;;;;;8.60;3.33;;;8.60;99.90;;;;;;5042476;28;20065;-53
2022/04/27 01:18:10;;;;;;;10.88;3.10;;;8.60;99.90;;;;;;5042459;28;20042;-54
2022/04/27 01:20:44;;;;;;;10.88;3.75;;;8.60;99.90;;;;;;5041360;28;20085;-54
2022/04/27 01:23:14;;;;;;;8.30;2.70;;;8.50;99.90;;;;;;5042682;28;20053;-54
2022/04/27 01:25:54;;;;;;;7.95;3.30;;;8.50;99.90;;;;;;5041369;28;20041;-51
2022/04/27 01:28:23;;;;;;;12.05;3.13;;;8.60;99.90;;;;;;5042371;28;20079;-54
2022/04/27 01:31:02;;;;;;;8.15;3.00;;;8.60;99.90;;;;;;5041610;28;20072;-53
2022/04/27 01:33:30;;;;;;;9.88;3.00;;;8.60;99.90;;;;;;5041376;28;20150;-53
2022/04/27 01:35:58;;;;;;;8.13;2.95;;;8.60;99.90;;;;;;5041540;28;20389;-53
2022/04/27 01:38:24;;;;;;;7.80;3.33;;;8.70;99.90;;;;;;5041075;28;20045;-51
2022/04/27 01:40:55;;;;;;;9.32;3.38;;;8.70;99.90;;;;;;5042066;28;20037;-53
2022/04/27 01:43:24;;;;;;;9.40;3.50;;;8.70;99.90;;;;;;5041000;28;20042;-54
2022/04/27 01:45:53;;;;;;;8.63;3.17;;;8.70;99.90;;;;;;5041297;28;20076;-52
2022/04/27 01:48:19;;;;;;;7.68;3.10;;;8.80;99.90;;;;;;5041998;28;20064;-53
2022/04/27 01:50:45;;;;;;;8.55;2.85;;;8.70;99.90;;;;;;5040981;28;20052;-54
2022/04/27 01:55:56;;;;;;;8.90;3.47;;;8.60;99.90;;;;;;5040756;28;20099;-53
2022/04/27 01:58:25;;;;;;;7.57;3.05;;;8.60;99.90;;;;;;5041343;28;20059;-53
2022/04/27 02:00:51;;;;;;;10.05;3.38;;;8.50;99.90;;;;;;5041406;28;20038;-54
2022/04/27 02:03:19;;;;;;;11.60;3.88;;;8.50;99.90;;;;;;5041051;28;20033;-53
2022/04/27 02:05:45;;;;;;;10.75;3.30;;;8.50;99.90;;;;;;5041949;28;20042;-54
2022/04/27 02:08:11;;;;;;;8.57;3.60;;;8.50;99.90;;;;;;5040254;28;20053;-51
2022/04/27 02:10:38;;;;;;;8.50;3.30;;;8.40;99.90;;;;;;5041863;28;20085;-55
2022/04/27 02:13:09;;;;;;;10.35;3.42;;;8.30;99.90;;;;;;5040643;28;20045;-54
2022/04/27 02:15:35;;;;;;;9.47;4.10;;;8.30;99.90;;;;;;5041297;28;20401;-54
2022/04/27 02:18:02;;;;;;;11.45;3.80;;;8.30;99.90;;;;;;5041171;28;20082;-54
2022/04/27 02:20:28;;;;;;;8.35;3.50;;;8.40;99.90;;;;;;5040782;28;20053;-52
2022/04/27 02:22:54;;;;;;;10.27;3.75;;;8.50;99.90;;;;;;5041452;28;20046;-54
2022/04/27 02:25:20;;;;;;;7.65;3.75;;;8.50;99.90;;;;;;5040357;28;20050;-55
2022/04/27 02:27:48;;;;;;;15.77;5.28;;;8.50;99.90;;;;;;5041637;28;20084;-56
2022/04/27 02:30:14;;;;;;;8.07;3.50;;;8.50;99.90;;;;;;5040151;28;20049;-54
2022/04/27 02:38:08;;;;;;;6.65;3.20;;;8.50;99.90;;;;;;5020691;28;20064;-55
2022/04/27 02:40:34;;;;;;;9.57;2.90;;;8.50;99.90;;;;;;5043382;28;20527;-56
2022/04/27 02:42:59;;;;;;;6.22;3.10;;;8.50;99.90;;;;;;5038621;28;20061;-53
2022/04/27 02:45:25;;;;;;;8.48;2.97;;;8.40;99.90;;;;;;5039998;28;20048;-54
2022/04/27 02:47:51;;;;;;;9.65;3.63;;;8.40;99.90;;;;;;5054582;28;20157;-56
2022/04/27 02:53:01;;;;;;;10.95;3.80;;;8.50;99.90;;;;;;5020658;28;20064;-54
2022/04/27 02:55:26;;;;;;;8.68;3.55;;;8.50;99.90;;;;;;5019727;28;20352;-57
2022/04/27 02:57:52;;;;;;;8.25;3.33;;;8.50;99.90;;;;;;5020881;28;20034;-55
2022/04/27 03:00:18;;;;;;;10.07;4.13;;;8.50;99.90;;;;;;5031192;28;20081;-55
2022/04/27 03:02:44;;;;;;;7.20;3.40;;;8.50;99.90;;;;;;5040358;28;20041;-55
2022/04/27 03:05:09;;;;;;;7.40;3.70;;;8.50;99.90;;;;;;5039991;28;20053;-54
2022/04/27 03:07:35;;;;;;;7.38;3.28;;;8.50;99.90;;;;;;5039559;28;20120;-54
2022/04/27 03:10:01;;;;;;;9.63;4.03;;;8.50;99.90;;;;;;5040678;28;20057;-54
2022/04/27 03:12:27;;;;;;;8.52;3.30;;;8.50;99.90;;;;;;5038826;28;20041;-54
2022/04/27 03:14:52;;;;;;;8.77;3.17;;;8.40;99.90;;;;;;5040630;28;20099;-56
2022/04/27 03:17:18;;;;;;;6.75;3.70;;;8.40;99.90;;;;;;5050019;28;20051;-54
2022/04/27 03:19:44;;;;;;;5.95;3.25;;;8.40;99.90;;;;;;5060141;28;20065;-52
2022/04/27 03:22:09;;;;;;;7.20;3.60;;;8.40;99.90;;;;;;5041902;28;20124;-52
2022/04/27 03:24:35;;;;;;;8.73;3.60;;;8.30;99.90;;;;;;5059615;28;20277;-54
2022/04/27 03:27:01;;;;;;;10.15;3.80;;;8.30;99.90;;;;;;5060362;28;20052;-53
2022/04/27 03:29:26;;;;;;;12.20;4.10;;;8.30;99.90;;;;;;5058865;28;20118;-51
2022/04/27 03:31:52;;;;;;;8.27;4.00;;;8.20;99.90;;;;;;5060350;28;20076;-51
2022/04/27 03:34:18;;;;;;;9.15;4.00;;;8.20;99.90;;;;;;5059026;28;20041;-52
2022/04/27 03:36:44;;;;;;;10.10;4.18;;;8.20;99.90;;;;;;5059866;28;20393;-52
2022/04/27 03:39:09;;;;;;;9.02;4.75;;;8.20;99.90;;;;;;5059444;28;20045;-51
2022/04/27 03:41:35;;;;;;;7.95;4.00;;;8.20;99.90;;;;;;5059329;28;20045;-53
2022/04/27 03:44:01;;;;;;;8.20;4.22;;;8.30;99.90;;;;;;5050708;28;20057;-53
2022/04/27 03:46:26;;;;;;;9.00;4.50;;;8.30;99.90;;;;;;5038822;28;20041;-55
2022/04/27 03:48:52;;;;;;;7.40;4.13;;;8.20;99.90;;;;;;5040131;28;20038;-53
2022/04/27 03:51:18;;;;;;;9.82;4.30;;;8.20;99.90;;;;;;5038392;28;20710;-55
2022/04/27 03:53:44;;;;;;;10.70;4.53;;;8.10;99.90;;;;;;5039586;28;20053;-53
2022/04/27 03:56:10;;;;;;;12.88;4.43;;;8.10;99.90;;;;;;5039111;28;20050;-50
2022/04/27 03:58:35;;;;;;;7.00;4.25;;;8.20;99.90;;;;;;5038577;28;20050;-51
2022/04/27 04:01:01;;;;;;;10.75;4.45;;;8.20;99.90;;;;;;5039574;28;20056;-53
2022/04/27 04:03:27;;;;;;;9.25;4.57;;;8.20;99.90;;;;;;5038856;28;20041;-53
2022/04/27 04:05:53;;;;;;;10.77;4.25;;;8.20;99.90;;;;;;5039818;28;20433;-54
2022/04/27 04:08:18;;;;;;;7.93;4.75;;;8.20;99.90;;;;;;5038669;28;20037;-54
2022/04/27 04:10:45;;;;;;;9.45;4.55;;;8.20;99.90;;;;;;5039855;28;20048;-55
2022/04/27 04:13:12;;;;;;;9.43;4.78;;;8.20;99.90;;;;;;5038872;28;20362;-52
2022/04/27 04:15:38;;;;;;;7.55;4.43;;;8.10;99.90;;;;;;5039526;28;20041;-54
2022/04/27 04:18:07;;;;;;;7.88;4.65;;;8.20;99.90;;;;;;5021693;28;20119;-52
2022/04/27 04:20:33;;;;;;;12.27;5.20;;;8.20;99.90;;;;;;5038268;28;20149;-54
2022/04/27 04:22:58;;;;;;;8.63;4.75;;;8.10;99.90;;;;;;5039631;28;20041;-54
2022/04/27 04:30:53;;;;;;;9.50;4.82;;;8.20;99.90;;;;;;5038855;28;20092;-54
2022/04/27 04:33:18;;;;;;;8.50;5.07;;;8.20;99.90;;;;;;5038593;28;20042;-58
2022/04/27 04:35:44;;;;;;;9.77;4.57;;;8.30;99.90;;;;;;5039555;28;20029;-52
2022/04/27 04:38:10;;;;;;;9.25;4.88;;;8.20;99.90;;;;;;5038199;28;20056;-53
2022/04/27 04:40:36;;;;;;;7.40;4.55;;;8.30;99.90;;;;;;5039625;28;20132;-51
2022/04/27 04:43:01;;;;;;;9.75;4.47;;;8.30;99.90;;;;;;5037863;28;20046;-54
2022/04/27 04:45:27;;;;;;;8.25;4.63;;;8.40;99.90;;;;;;5035093;28;20088;-52
2022/04/27 04:47:53;;;;;;;9.27;4.70;;;8.40;99.90;;;;;;5034988;28;20441;-52
2022/04/27 04:50:19;;;;;;;9.35;4.55;;;8.30;99.90;;;;;;5034578;28;20037;-48
2022/04/27 04:52:48;;;;;;;8.85;4.28;;;8.30;99.90;;;;;;5035265;28;20081;-52
2022/04/27 04:55:13;;;;;;;10.25;4.63;;;8.30;99.90;;;;;;5034231;28;20101;-52
2022/04/27 04:57:39;;;;;;;9.20;4.72;;;8.30;99.90;;;;;;5001427;28;20077;-52
2022/04/27 05:00:08;;;;;;;9.52;4.68;;;8.40;99.90;;;;;;5034416;28;20065;-52
2022/04/27 05:02:34;;;;;;;7.97;5.00;;;8.30;99.90;;;;;;5035154;28;20100;-54
2022/04/27 05:05:03;;;;;;;9.25;4.35;;;8.40;99.90;;;;;;5034705;28;20077;-52
2022/04/27 05:07:30;;;;;;;8.85;4.68;;;8.50;99.90;;;;;;5034648;28;20076;-51
2022/04/27 05:09:56;;;;;;;10.32;4.38;;;8.50;99.90;;;;;;5037372;28;20050;-52
2022/04/27 05:12:23;;;;;;;8.93;4.85;;;8.50;99.90;;;;;;5037723;28;20049;-53
2022/04/27 05:14:49;;;;;;;7.47;4.75;;;8.30;99.90;;;;;;5038743;28;20061;-54
2022/04/27 05:17:14;;;;;;;10.98;4.50;;;8.40;99.90;;;;;;5037674;28;20042;-50
2022/04/27 05:19:40;;;;;;;10.20;4.45;;;8.50;99.90;;;;;;5038498;28;20046;-51
2022/04/27 05:22:06;;;;;;;9.27;4.07;;;8.50;99.90;;;;;;5039820;28;20045;-50
2022/04/27 05:24:32;;;;;;;7.45;4.22;;;8.50;99.90;;;;;;5054777;28;20099;-53
2022/04/27 05:26:57;;;;;;;6.25;3.97;;;8.50;99.90;;;;;;5058639;28;20064;-54
2022/04/27 05:32:08;;;;;;;9.75;4.43;;;8.60;99.90;;;;;;5058174;28;20203;-54
2022/04/27 05:34:34;;;;;;;9.55;4.55;;;8.60;99.90;;;;;;5039845;28;20052;-54
2022/04/27 05:37:00;;;;;;;10.05;4.97;;;8.70;99.90;;;;;;5040054;28;20075;-53
2022/04/27 05:39:26;;;;;;;14.15;6.65;;;8.70;99.90;;;;;;5057885;28;20049;-54
2022/04/27 05:41:53;;;;;;;10.65;5.03;;;8.70;99.90;;;;;;5057039;28;20055;-52
2022/04/27 05:44:23;;;;;;;8.00;4.47;;;8.70;99.90;;;;;;5048721;28;20049;-52
2022/04/27 05:46:50;;;;;;;8.68;4.43;;;8.70;99.90;;;;;;5040551;28;20171;-51
2022/04/27 05:49:16;;;;;;;10.85;4.13;;;8.80;99.90;;;;;;5022419;28;20812;-50
2022/04/27 05:51:41;;;;;;;8.70;4.40;;;8.80;99.90;;;;;;5041137;28;20045;-53
2022/04/27 05:54:07;;;;;;;9.50;4.13;;;8.90;99.90;;;;;;5041152;28;20053;-54
2022/04/27 05:56:33;;;;;;;9.55;4.13;;;8.90;99.90;;;;;;5041612;28;20161;-53
2022/04/27 05:58:59;;;;;;;9.80;4.32;;;8.90;99.90;;;;;;5040818;28;20041;-53
2022/04/27 06:01:25;;;;;;;7.65;3.95;;;8.90;99.90;;;;;;5041833;28;20109;-49
2022/04/27 06:03:53;;;;;;;7.47;4.25;;;8.90;99.90;;;;;;5022296;28;20056;-53
2022/04/27 06:06:20;;;;;;;8.45;4.03;;;8.80;99.90;;;;;;5041715;28;20038;-53
2022/04/27 06:08:46;;;;;;;7.20;3.50;;;8.80;99.90;;;;;;5040661;28;20041;-52
2022/04/27 06:11:12;;;;;;;9.02;4.20;;;8.90;99.90;;;;;;5041449;28;20056;-52
2022/04/27 06:13:37;;;;;;;9.60;4.13;;;8.90;99.90;;;;;;5040827;28;20048;-52
2022/04/27 06:16:03;;;;;;;11.20;3.65;;;8.90;99.90;;;;;;5022762;28;20049;-52
2022/04/27 06:18:29;;;;;;;8.07;3.65;;;8.90;99.90;;;;;;5041257;28;20042;-53
2022/04/27 06:20:55;;;;;;;7.43;3.20;;;8.90;99.90;;;;;;5039658;28;20042;-53
2022/04/27 06:23:23;;;;;;;8.38;3.50;;;9.10;99.90;;;;;;5041520;28;20082;-55
2022/04/27 06:25:49;;;;;;;9.60;3.33;;;9.10;99.90;;;;;;5035566;28;20050;-52
2022/04/27 06:28:18;;;;;;;9.27;3.13;;;9.10;99.90;;;;;;5037225;28;20084;-52
2022/04/27 06:30:45;;;;;;;9.18;3.63;;;9.20;99.90;;;;;;5037007;28;20043;-53
2022/04/27 06:33:10;;;;;;;10.20;3.10;;;9.20;99.90;;;;;;5036620;28;20114;-53
2022/04/27 06:35:37;;;;;;;9.75;3.05;;;9.10;99.90;;;;;;5037109;28;20033;-53
2022/04/27 06:38:03;;;;;;;7.38;3.10;;;9.10;99.90;;;;;;5035848;28;20045;-53
2022/04/27 06:40:29;;;;;;;7.82;2.53;;;9.20;99.90;;;;;;5037168;28;20053;-54
2022/04/27 06:42:56;;;;;;;7.97;2.92;;;9.10;99.90;;;;;;5035816;28;20262;-53
2022/04/27 06:45:27;;;;;;;8.73;3.10;;;9.10;99.90;;;;;;5016657;28;20136;-54
2022/04/27 06:47:54;;;;;;;8.48;3.08;;;9.20;99.90;;;;;;5017014;28;20068;-52
2022/04/27 06:50:20;;;;;;;8.52;3.78;;;9.20;99.90;;;;;;5018196;28;20095;-53
2022/04/27 06:52:48;;;;;;;7.20;3.10;;;9.10;99.90;;;;;;5042275;28;20092;-53
2022/04/27 06:55:16;;;;;;;9.95;3.40;;;9.10;99.90;;;;;;5038966;28;20072;-53
2022/04/27 06:57:42;;;;;;;10.23;3.40;;;9.20;99.90;;;;;;5037084;28;20041;-52
2022/04/27 07:00:10;;;;;;;9.85;3.42;;;9.20;99.90;;;;;;5035448;28;20516;-50
2022/04/27 07:02:37;;;;;;;7.38;3.20;;;9.20;99.90;;;;;;5036568;28;20051;-51
2022/04/27 07:05:03;;;;;;;7.72;2.55;;;9.30;99.90;;;;;;5035683;28;20053;-50
2022/04/27 07:07:29;;;;;;;8.43;2.88;;;9.30;99.90;;;;;;5035888;28;20071;-52
2022/04/27 07:09:58;;;;;;;8.23;2.80;;;9.30;99.90;;;;;;5036736;28;20560;-53
2022/04/27 07:12:24;;;;;;;6.95;2.25;;;9.30;99.90;;;;;;5034792;28;20171;-52
2022/04/27 07:14:51;;;;;;;8.23;2.55;;;9.30;99.90;;;;;;5036875;28;20037;-50
2022/04/27 07:17:17;;;;;;;8.18;3.20;;;9.40;99.90;;;;;;5035433;28;20042;-54
2022/04/27 07:19:43;;;;;;;12.00;3.42;;;9.30;99.90;;;;;;5035887;28;20080;-53
2022/04/27 07:22:10;;;;;;;9.05;3.00;;;9.40;99.90;;;;;;5036257;28;20041;-52
2022/04/27 07:24:37;;;;;;;9.35;4.13;;;9.40;99.90;;;;;;5035337;28;20053;-52
2022/04/27 07:27:03;;;;;;;9.15;3.40;;;9.40;99.90;;;;;;5036619;28;20113;-53
2022/04/27 07:29:29;;;;;;;7.68;3.22;;;9.40;99.90;;;;;;5035048;28;20406;-50
2022/04/27 07:31:55;;;;;;;9.63;3.33;;;9.50;99.90;;;;;;5035904;28;20041;-53
2022/04/27 07:34:20;;;;;;;9.15;3.45;;;9.40;99.90;;;;;;5034814;28;20719;-53
2022/04/27 07:36:46;;;;;;;9.30;3.25;;;9.50;99.90;;;;;;5035909;28;20041;-56
2022/04/27 07:39:12;;;;;;;9.13;3.40;;;9.60;99.90;;;;;;5035473;28;20046;-54
2022/04/27 07:41:37;;;;;;;6.88;3.00;;;9.60;99.90;;;;;;5035363;28;20065;-53
2022/04/27 07:44:04;;;;;;;10.38;3.25;;;9.60;99.90;;;;;;5035894;28;20041;-54
2022/04/27 07:46:29;;;;;;;9.25;3.38;;;9.60;99.90;;;;;;5035192;28;20076;-50
2022/04/27 07:48:55;;;;;;;8.65;3.10;;;9.60;99.90;;;;;;5036220;28;20049;-51
2022/04/27 07:51:21;;;;;;;7.78;3.35;;;9.60;99.90;;;;;;5035010;28;20135;-53
2022/04/27 07:53:47;;;;;;;8.35;2.92;;;9.60;99.90;;;;;;5035786;28;20064;-53
2022/04/27 07:56:13;;;;;;;12.35;3.78;;;9.70;99.90;;;;;;5035467;28;20057;-53
2022/04/27 07:58:39;;;;;;;8.88;3.20;;;9.70;99.90;;;;;;5035504;28;20482;-53
2022/04/27 08:01:05;;;;;;;9.63;2.65;;;9.70;99.90;;;;;;5035440;28;20453;-54
2022/04/27 08:03:30;;;;;;;7.65;2.47;;;9.70;99.90;;;;;;5035076;28;20049;-54
2022/04/27 08:05:56;;;;;;;9.20;2.60;;;9.70;99.90;;;;;;5002218;28;20046;-52
2022/04/27 08:08:22;;;;;;;9.90;2.75;;;9.70;99.90;;;;;;5034985;28;20045;-50
2022/04/27 08:10:47;;;;;;;8.93;2.30;;;9.70;99.90;;;;;;5035736;28;20531;-50
2022/04/27 08:13:15;;;;;;;13.25;2.72;;;9.70;99.90;;;;;;5034917;28;20048;-50
2022/04/27 08:15:40;;;;;;;11.02;2.95;;;9.80;99.90;;;;;;5035523;28;20128;-53
2022/04/27 08:18:07;;;;;;;9.88;2.58;;;9.60;99.90;;;;;;5035783;28;20139;-53
2022/04/27 08:23:24;;;;;;;9.88;2.28;;;9.60;99.90;;;;;;5036410;28;20532;-52
2022/04/27 08:25:50;;;;;;;10.40;2.30;;;9.70;99.90;;;;;;5034492;28;20041;-49
2022/04/27 08:28:17;;;;;;;11.02;3.05;;;9.60;99.90;;;;;;5035193;28;20603;-50
2022/04/27 08:30:45;;;;;;;12.68;2.80;;;9.60;99.90;;;;;;5017310;28;20041;-51
2022/04/27 08:33:12;;;;;;;7.55;2.55;;;9.60;99.90;;;;;;5035053;28;20057;-50
2022/04/27 08:35:38;;;;;;;13.75;4.35;;;9.60;99.90;;;;;;5035373;28;20147;-52
2022/04/27 08:38:05;;;;;;;11.75;2.95;;;9.60;99.90;;;;;;5049002;28;20083;-53
2022/04/27 08:40:31;;;;;;;9.95;2.70;;;9.50;99.90;;;;;;5055619;28;20044;-51
2022/04/27 08:43:00;;;;;;;11.70;2.97;;;9.50;99.90;;;;;;5054144;28;20293;-52
2022/04/27 08:45:26;;;;;;;8.85;2.88;;;9.50;99.90;;;;;;5038855;28;20053;-49
2022/04/27 08:47:51;;;;;;;10.57;3.00;;;9.50;99.90;;;;;;5021028;28;20446;-51
2022/04/27 08:50:20;;;;;;;14.57;3.03;;;9.40;99.90;;;;;;5038730;28;20046;-50
2022/04/27 08:52:47;;;;;;;11.07;2.72;;;9.40;99.90;;;;;;5039414;28;20053;-50
2022/04/27 08:55:13;;;;;;;14.00;3.25;;;9.50;99.90;;;;;;5038204;28;20079;-53
2022/04/27 08:57:40;;;;;;;11.55;2.78;;;9.40;99.90;;;;;;5021325;28;20710;-52
2022/04/27 09:00:08;;;;;;;12.02;3.08;;;9.40;99.90;;;;;;5038089;28;20053;-49
2022/04/27 09:02:35;;;;;;;9.95;2.75;;;9.40;99.90;;;;;;5038906;28;20076;-52
2022/04/27 09:05:13;;;;;;;13.70;3.03;;;9.30;99.90;;;;;;5038856;28;20049;-53
2022/04/27 09:07:40;;;;;;;13.10;2.72;;;9.30;99.90;;;;;;5038071;28;20049;-52
2022/04/27 09:10:08;;;;;;;11.55;3.63;;;9.40;99.90;;;;;;5038822;28;20072;-53
2022/04/27 09:12:35;;;;;;;11.07;2.83;;;9.40;99.90;;;;;;5037245;28;20044;-53
2022/04/27 09:15:06;;;;;;;10.05;2.88;;;9.50;99.90;;;;;;5038956;28;20054;-52
2022/04/27 09:23:07;;;;;;;7.72;2.15;;;9.50;99.90;;;;;;5039165;28;20044;-51
2022/04/27 09:25:34;;;;;;;15.23;3.00;;;9.60;99.90;;;;;;5037493;28;20049;-54
2022/04/27 09:28:02;;;;;;;10.82;2.50;;;9.60;99.90;;;;;;5038883;28;20046;-51
2022/04/27 09:30:32;;;;;;;10.27;2.42;;;9.60;99.90;;;;;;5038403;28;20055;-55
2022/04/27 09:32:58;;;;;;;11.63;2.67;;;9.60;99.90;;;;;;5038071;28;20045;-51
2022/04/27 09:35:35;;;;;;;14.07;3.35;;;9.60;99.90;;;;;;5038577;28;20060;-53
2022/04/27 09:38:20;;;;;;;9.05;2.65;;;9.50;99.90;;;;;;5037367;28;20064;-52
2022/04/27 09:40:54;;;;;;;10.25;3.20;;;9.70;99.90;;;;;;5038662;28;20045;-52
2022/04/27 09:43:41;;;;;;;12.73;3.30;;;9.80;99.90;;;;;;5037674;28;20049;-53
2022/04/27 09:46:17;;;;;;;14.35;3.17;;;9.90;99.90;;;;;;5037718;28;20041;-53
2022/04/27 09:48:47;;;;;;;14.00;4.32;;;9.90;99.90;;;;;;5038196;28;20041;-51
2022/04/27 09:51:14;;;;;;;12.52;2.72;;;10.00;99.90;;;;;;5037231;28;20109;-53
2022/04/27 09:53:45;;;;;;;12.55;2.97;;;10.00;99.90;;;;;;5020227;28;20578;-55
2022/04/27 09:56:12;;;;;;;10.70;2.50;;;9.90;99.90;;;;;;5036625;28;20049;-51
2022/04/27 09:58:44;;;;;;;12.88;2.55;;;10.00;99.90;;;;;;5039769;28;20113;-51
2022/04/27 10:01:14;;;;;;;13.02;2.92;;;10.10;99.90;;;;;;5041800;28;20160;-54
2022/04/27 10:03:42;;;;;;;13.52;2.80;;;10.10;99.90;;;;;;5040536;28;20034;-53
2022/04/27 10:06:08;;;;;;;12.30;2.72;;;10.20;99.90;;;;;;5042004;28;20077;-52
2022/04/27 10:08:36;;;;;;;12.13;2.88;;;10.30;99.90;;;;;;5040446;28;20046;-53
2022/04/27 10:11:04;;;;;;;10.43;2.28;;;10.30;99.90;;;;;;5041109;28;20580;-55
2022/04/27 10:13:32;;;;;;;10.13;2.60;;;10.10;99.90;;;;;;5040272;28;20395;-52
2022/04/27 10:15:58;;;;;;;11.50;2.63;;;10.30;99.90;;;;;;5051604;28;20041;-55
2022/04/27 10:18:23;;;;;;;12.98;2.67;;;10.40;99.90;;;;;;5059043;28;20052;-54
2022/04/27 10:20:53;;;;;;;9.93;2.70;;;10.30;99.90;;;;;;5058938;28;20041;-51
2022/04/27 10:23:31;;;;;;;17.65;3.33;;;10.20;99.90;;;;;;5051352;28;20038;-55
2022/04/27 10:26:10;;;;;;;9.45;2.83;;;10.10;99.90;;;;;;5049552;28;20470;-54
2022/04/27 10:28:57;;;;;;;11.88;2.40;;;10.10;99.90;;;;;;5049343;28;20123;-54
2022/04/27 10:31:45;;;;;;;19.15;3.13;;;10.20;99.90;;;;;;5023584;28;21205;-53
2022/04/27 10:34:17;;;;;;;8.93;2.20;;;10.50;99.90;;;;;;5040081;28;20539;-55
2022/04/27 10:36:43;;;;;;;12.30;2.80;;;10.60;99.90;;;;;;5040990;28;20049;-53
2022/04/27 10:39:12;;;;;;;12.32;2.70;;;10.60;99.90;;;;;;5022559;28;20045;-54
2022/04/27 10:42:03;;;;;;;13.05;2.85;;;10.70;99.90;;;;;;5040058;28;20444;-53
2022/04/27 10:44:51;;;;;;;10.90;2.30;;;10.80;99.90;;;;;;4996525;28;20053;-53
2022/04/27 10:47:21;;;;;;;10.15;2.38;;;10.70;99.90;;;;;;5042811;28;20069;-51
2022/04/27 10:50:09;;;;;;;13.13;3.20;;;10.60;99.90;;;;;;5051459;28;20113;-53
2022/04/27 10:52:53;;;;;;;12.93;3.05;;;10.90;99.90;;;;;;5020841;28;20052;-53
2022/04/27 10:55:45;;;;;;;9.40;2.28;;;10.90;99.90;;;;;;5019733;28;20057;-52
2022/04/27 10:58:28;;;;;;;8.73;2.75;;;10.90;99.90;;;;;;5020844;28;20052;-54
2022/04/27 11:01:02;;;;;;;15.48;3.35;;;11.10;99.90;;;;;;5020622;28;20080;-53
2022/04/27 11:03:36;;;;;;;12.52;2.38;;;11.10;99.90;;;;;;5019736;28;20165;-56
2022/04/27 11:06:08;;;;;;;16.15;2.70;;;11.20;99.90;;;;;;5020857;28;20042;-55
2022/04/27 11:09:11;;;;;;;14.52;2.88;;;11.40;99.90;;;;;;5019781;28;20038;-54
2022/04/27 11:11:50;;;;;;;;;;;11.60;99.90;;;;;;5019962;28;20049;-54
2022/04/27 11:14:18;;;;;;;10.93;2.45;;;11.80;99.90;;;;;;5020668;28;20428;-53
2022/04/27 11:16:47;;;;;;;14.13;2.90;;;11.90;99.90;;;;;;5002013;28;20076;-54
2022/04/27 11:19:13;;;;;;;10.63;2.78;;;11.60;99.90;;;;;;5020709;28;20069;-55
2022/04/27 11:21:40;;;;;;;13.20;2.75;;;11.80;99.90;;;;;;5019693;28;20050;-52
2022/04/27 11:24:07;;;;;;;10.23;2.85;;;11.80;99.90;;;;;;5019948;28;20045;-55
2022/04/27 11:26:46;;;;;;;9.15;2.90;;;12.00;99.90;;;;;;5020352;28;20498;-52
2022/04/27 11:29:14;;;;;;;10.43;2.65;;;12.10;99.90;;;;;;5019277;28;20384;-54
2022/04/27 11:31:43;;;;;;;9.23;2.13;;;12.20;99.90;;;;;;5020722;28;20046;-53
2022/04/27 11:34:26;;;;;;;12.93;3.00;;;12.10;99.90;;;;;;5019492;28;20510;-53
2022/04/27 11:36:54;;;;;;;9.50;2.60;;;12.30;99.90;;;;;;5002264;28;20096;-54
2022/04/27 11:39:21;;;;;;;9.27;2.35;;;12.20;99.90;;;;;;5020086;28;20073;-54
2022/04/27 11:41:56;;;;;;;9.77;2.25;;;12.30;99.90;;;;;;5019106;28;20426;-54
2022/04/27 11:44:21;;;;;;;9.35;2.35;;;12.30;99.90;;;;;;5032096;28;20037;-53
2022/04/27 11:46:47;;;;;;;7.43;2.17;;;12.30;99.90;;;;;;5021005;28;20060;-55
2022/04/27 11:49:13;;;;;;;9.10;2.47;;;11.90;99.90;;;;;;5039889;28;20037;-53
2022/04/27 11:51:44;;;;;;;11.13;2.47;;;12.20;99.90;;;;;;5039197;28;20558;-55
2022/04/27 11:54:10;;;;;;;13.10;2.67;;;11.90;99.90;;;;;;5039193;28;20053;-53
2022/04/27 11:56:41;;;;;;;8.18;2.20;;;12.00;99.90;;;;;;5041934;28;20103;-54
2022/04/27 11:59:08;;;;;;;14.03;2.23;;;12.10;99.90;;;;;;5048171;28;20079;-60
2022/04/27 12:01:34;;;;;;;11.50;2.35;;;12.00;99.90;;;;;;5047093;28;20076;-54
2022/04/27 12:04:01;;;;;;;8.70;2.80;;;12.00;99.90;;;;;;5048712;28;20047;-55
2022/04/27 12:06:28;;;;;;;8.75;2.30;;;11.90;99.90;;;;;;5041473;28;20037;-56
2022/04/27 12:08:59;;;;;;;12.05;3.45;;;11.80;99.90;;;;;;5039076;28;20098;-53
2022/04/27 12:11:25;;;;;;;7.80;3.10;;;11.70;99.90;;;;;;5020987;28;20100;-51
2022/04/27 12:13:55;;;;;;;9.80;2.25;;;11.60;99.90;;;;;;5039163;28;20192;-50
2022/04/27 12:16:21;;;;;;;8.50;2.60;;;11.80;99.90;;;;;;5038727;28;20046;-54
2022/04/27 12:18:51;;;;;;;10.80;2.53;;;11.70;99.90;;;;;;5040458;28;20041;-54
2022/04/27 12:21:24;;;;;;;9.27;2.25;;;11.70;99.90;;;;;;5042524;28;20499;-53
2022/04/27 12:23:51;;;;;;;11.45;2.50;;;11.80;99.90;;;;;;5043260;28;20045;-54
2022/04/27 12:26:17;;;;;;;10.13;2.20;;;11.90;99.90;;;;;;5042937;28;20069;-58
2022/04/27 12:28:49;;;;;;;10.68;2.42;;;11.80;99.90;;;;;;5024835;28;20394;-55
2022/04/27 12:31:16;;;;;;;9.63;2.38;;;11.80;99.90;;;;;;5043590;28;20037;-53
2022/04/27 12:33:49;;;;;;;12.30;2.45;;;11.90;99.90;;;;;;5042266;28;20107;-53
2022/04/27 12:39:20;;;;;;;9.20;2.55;;;11.90;99.90;;;;;;5042861;28;20053;-53
2022/04/27 12:41:49;;;;;;;10.27;3.20;;;11.80;99.90;;;;;;5024074;28;20060;-52
2022/04/27 12:44:35;;;;;;;12.45;2.42;;;11.70;99.90;;;;;;5043119;28;20056;-51
2022/04/27 12:47:03;;;;;;;10.52;3.00;;;11.50;99.90;;;;;;5041832;28;20465;-54
2022/04/27 12:49:31;;;;;;;11.90;2.42;;;11.40;99.90;;;;;;5042683;28;20046;-51
2022/04/27 12:52:23;;;;;;;7.13;2.35;;;11.50;99.90;;;;;;5042564;28;20065;-56
2022/04/27 12:54:52;;;;;;;;;;;11.20;99.90;;;;;;5042131;28;20050;-53
2022/04/27 12:57:18;;;;;;;13.02;4.18;;;11.00;99.90;;;;;;5042818;28;19935;-51
2022/04/27 12:59:58;;;;;;;10.65;2.30;;;11.10;99.90;;;;;;5041552;28;20158;-52
2022/04/27 13:02:24;;;;;;;12.00;2.65;;;11.10;99.90;;;;;;5042484;28;20060;-54
2022/04/27 13:04:51;;;;;;;8.60;2.40;;;11.00;99.90;;;;;;5024573;28;20042;-54
2022/04/27 13:07:18;;;;;;;10.57;2.45;;;11.10;99.90;;;;;;5024174;28;20057;-54
2022/04/27 13:12:48;;;;;;;9.70;2.80;;;11.10;99.90;;;;;;4979893;28;20051;-53
2022/04/27 13:15:13;;;;;;;13.13;3.50;;;11.30;99.90;;;;;;4980985;28;20078;-53
2022/04/27 13:17:39;;;;;;;10.50;3.08;;;11.40;99.90;;;;;;5008994;28;20068;-53
2022/04/27 13:20:07;;;;;;;15.85;3.22;;;11.40;99.90;;;;;;5041271;28;20045;-52
2022/04/27 13:22:33;;;;;;;9.80;2.70;;;11.30;99.90;;;;;;5042525;28;20045;-53
2022/04/27 13:24:58;;;;;;;15.60;3.55;;;11.50;99.90;;;;;;5041244;28;20049;-52
2022/04/27 13:27:25;;;;;;;9.60;2.30;;;11.60;99.90;;;;;;5042320;28;20050;-55
2022/04/27 13:29:51;;;;;;;12.80;3.38;;;11.90;99.90;;;;;;5041109;28;20401;-54